Val Marie, Canada
Current Conditions -  °F | °C
As of 3:00 AM on Monday 24 Nov 2014 (Local Time) from CYYN Reporting Station
Broken Clouds Broken Clouds  
Wind Chill:   Ceiling: 13000
Heat Index: 16°   Visibility: 9mi
Dew Point: 14°   Wind: 6mph
Humidity: 93%   Direction: 180°S
Pressure: 29.79"   Gusts: NA
Location:  49.23°N, 107.73°W
Report Text: CYYN 240900Z AUTO 18005KT 9SM BKN130 BKN150 M09/M10 A2979 RMK SLP135
Loading
Personal Weather Stations






























Interactive Weather Map New forecast layout! Learn more

10-Day Weather Forecast

Advertisements
Track Severe Weather on mobile